sensor_id;sensor_type;location;lat;lon;timestamp;pressure;altitude;pressure_sealevel;temperature;humidity
72395;BME280;60384;48.152;11.614;2023-03-31T00:00:53;95280.34;;;10.16;62.79
72395;BME280;60384;48.152;11.614;2023-03-31T00:03:57;95281.91;;;10.17;62.63
72395;BME280;60384;48.152;11.614;2023-03-31T00:07:03;95269.69;;;10.16;63.29
72395;BME280;60384;48.152;11.614;2023-03-31T00:10:07;95267.00;;;10.16;62.75
72395;BME280;60384;48.152;11.614;2023-03-31T00:13:10;95263.53;;;10.16;62.63
72395;BME280;60384;48.152;11.614;2023-03-31T00:16:11;95251.78;;;10.17;62.65
72395;BME280;60384;48.152;11.614;2023-03-31T00:19:13;95245.34;;;10.18;62.79
72395;BME280;60384;48.152;11.614;2023-03-31T00:22:19;95242.66;;;10.18;62.56
72395;BME280;60384;48.152;11.614;2023-03-31T00:25:23;95236.22;;;10.19;62.57
72395;BME280;60384;48.152;11.614;2023-03-31T00:28:25;95235.44;;;10.18;62.64
72395;BME280;60384;48.152;11.614;2023-03-31T00:31:26;95230.91;;;10.19;62.79
72395;BME280;60384;48.152;11.614;2023-03-31T00:34:28;95225.22;;;10.20;62.73
72395;BME280;60384;48.152;11.614;2023-03-31T00:37:31;95218.00;;;10.21;63.10
72395;BME280;60384;48.152;11.614;2023-03-31T00:40:34;95214.69;;;10.24;62.68
72395;BME280;60384;48.152;11.614;2023-03-31T00:43:36;95213.59;;;10.25;63.42
72395;BME280;60384;48.152;11.614;2023-03-31T00:46:39;95198.31;;;10.25;62.53
72395;BME280;60384;48.152;11.614;2023-03-31T00:49:43;95191.88;;;10.26;62.62
72395;BME280;60384;48.152;11.614;2023-03-31T00:52:46;95190.00;;;10.27;62.55
72395;BME280;60384;48.152;11.614;2023-03-31T00:55:52;95185.75;;;10.26;62.61
72395;BME280;60384;48.152;11.614;2023-03-31T00:58:55;95181.56;;;10.25;62.75
72395;BME280;60384;48.152;11.614;2023-03-31T01:01:57;95174.97;;;10.22;62.63
72395;BME280;60384;48.152;11.614;2023-03-31T01:05:02;95180.63;;;10.21;62.95
72395;BME280;60384;48.152;11.614;2023-03-31T01:08:04;95167.63;;;10.19;62.69
72395;BME280;60384;48.152;11.614;2023-03-31T01:11:08;95168.72;;;10.18;62.66
72395;BME280;60384;48.152;11.614;2023-03-31T01:14:10;95162.91;;;10.16;62.89
72395;BME280;60384;48.152;11.614;2023-03-31T01:17:12;95162.09;;;10.16;62.90
72395;BME280;60384;48.152;11.614;2023-03-31T01:20:19;95153.81;;;10.17;63.02
72395;BME280;60384;48.152;11.614;2023-03-31T01:23:35;95146.59;;;10.18;62.69
72395;BME280;60384;48.152;11.614;2023-03-31T01:26:56;95148.47;;;10.17;62.69
72395;BME280;60384;48.152;11.614;2023-03-31T01:30:07;95142.81;;;10.19;62.52
72395;BME280;60384;48.152;11.614;2023-03-31T01:43:19;95105.56;;;10.22;62.56
72395;BME280;60384;48.152;11.614;2023-03-31T01:46:25;95113.25;;;10.24;62.82
72395;BME280;60384;48.152;11.614;2023-03-31T01:49:29;95108.69;;;10.24;62.53
72395;BME280;60384;48.152;11.614;2023-03-31T01:52:36;95105.69;;;10.26;62.73
72395;BME280;60384;48.152;11.614;2023-03-31T01:55:44;95105.34;;;10.27;62.95
72395;BME280;60384;48.152;11.614;2023-03-31T01:58:49;95097.03;;;10.29;63.11
72395;BME280;60384;48.152;11.614;2023-03-31T02:01:55;95088.34;;;10.32;62.37
72395;BME280;60384;48.152;11.614;2023-03-31T02:04:58;95088.03;;;10.33;62.95
72395;BME280;60384;48.152;11.614;2023-03-31T02:08:01;95085.81;;;10.35;62.67
72395;BME280;60384;48.152;11.614;2023-03-31T02:11:05;95082.81;;;10.37;62.48
72395;BME280;60384;48.152;11.614;2023-03-31T02:14:10;95067.56;;;10.38;62.99
72395;BME280;60384;48.152;11.614;2023-03-31T02:17:14;95066.78;;;10.37;63.18
72395;BME280;60384;48.152;11.614;2023-03-31T02:20:18;95051.13;;;10.35;62.68
72395;BME280;60384;48.152;11.614;2023-03-31T02:23:22;95047.97;;;10.33;63.00
72395;BME280;60384;48.152;11.614;2023-03-31T02:26:29;95058.19;;;10.31;62.65
72395;BME280;60384;48.152;11.614;2023-03-31T02:29:33;95054.31;;;10.29;62.62
72395;BME280;60384;48.152;11.614;2023-03-31T02:32:36;95055.44;;;10.28;62.62
72395;BME280;60384;48.152;11.614;2023-03-31T02:35:38;95061.09;;;10.26;62.63
72395;BME280;60384;48.152;11.614;2023-03-31T02:38:41;95048.84;;;10.25;63.13
72395;BME280;60384;48.152;11.614;2023-03-31T02:41:44;95057.63;;;10.26;62.73
72395;BME280;60384;48.152;11.614;2023-03-31T02:44:47;95048.84;;;10.25;63.08
72395;BME280;60384;48.152;11.614;2023-03-31T02:47:49;95052.28;;;10.26;63.26
72395;BME280;60384;48.152;11.614;2023-03-31T02:50:54;95050.41;;;10.26;62.51
72395;BME280;60384;48.152;11.614;2023-03-31T02:57:53;95074.56;;;10.30;63.24
72395;BME280;60384;48.152;11.614;2023-03-31T03:01:06;95066.56;;;10.30;63.47
72395;BME280;60384;48.152;11.614;2023-03-31T03:04:12;95059.34;;;10.30;62.53
72395;BME280;60384;48.152;11.614;2023-03-31T03:07:18;95047.53;;;10.31;62.87
72395;BME280;60384;48.152;11.614;2023-03-31T03:10:27;95042.53;;;10.30;62.57
72395;BME280;60384;48.152;11.614;2023-03-31T03:13:33;95029.97;;;10.30;63.38
72395;BME280;60384;48.152;11.614;2023-03-31T03:16:38;95036.84;;;10.31;62.89
72395;BME280;60384;48.152;11.614;2023-03-31T03:19:41;95031.19;;;10.33;62.77
72395;BME280;60384;48.152;11.614;2023-03-31T03:22:43;95034.75;;;10.37;62.46
72395;BME280;60384;48.152;11.614;2023-03-31T03:25:44;95033.31;;;10.40;62.53
72395;BME280;60384;48.152;11.614;2023-03-31T03:28:47;95042.91;;;10.41;63.44
72395;BME280;60384;48.152;11.614;2023-03-31T03:31:50;95050.13;;;10.40;63.36
72395;BME280;60384;48.152;11.614;2023-03-31T03:34:52;95063.00;;;10.38;62.89
72395;BME280;60384;48.152;11.614;2023-03-31T03:37:54;95067.47;;;10.34;62.47
72395;BME280;60384;48.152;11.614;2023-03-31T03:40:55;95071.13;;;10.29;62.94
72395;BME280;60384;48.152;11.614;2023-03-31T03:43:57;95067.53;;;10.25;62.69
72395;BME280;60384;48.152;11.614;2023-03-31T03:47:00;95076.97;;;10.23;63.51
72395;BME280;60384;48.152;11.614;2023-03-31T03:50:02;95082.22;;;10.19;63.53
72395;BME280;60384;48.152;11.614;2023-03-31T03:53:04;95072.81;;;10.13;63.17
72395;BME280;60384;48.152;11.614;2023-03-31T03:56:05;95073.13;;;10.12;63.53
72395;BME280;60384;48.152;11.614;2023-03-31T03:59:07;95061.88;;;10.06;62.79
72395;BME280;60384;48.152;11.614;2023-03-31T04:02:10;95049.97;;;10.04;62.87
72395;BME280;60384;48.152;11.614;2023-03-31T04:05:12;95039.63;;;10.02;63.27
72395;BME280;60384;48.152;11.614;2023-03-31T04:08:13;95034.94;;;9.99;62.88
72395;BME280;60384;48.152;11.614;2023-03-31T04:11:16;95022.69;;;9.98;63.49
72395;BME280;60384;48.152;11.614;2023-03-31T04:14:17;95021.13;;;9.97;62.93
72395;BME280;60384;48.152;11.614;2023-03-31T04:17:20;95004.03;;;9.98;63.29
72395;BME280;60384;48.152;11.614;2023-03-31T04:20:32;94996.47;;;10.00;63.15
72395;BME280;60384;48.152;11.614;2023-03-31T04:23:34;94991.16;;;10.00;63.31
72395;BME280;60384;48.152;11.614;2023-03-31T04:26:37;94999.63;;;10.02;63.02
72395;BME280;60384;48.152;11.614;2023-03-31T04:29:42;94989.38;;;10.04;63.15
72395;BME280;60384;48.152;11.614;2023-03-31T04:32:55;94967.72;;;10.06;63.12
72395;BME280;60384;48.152;11.614;2023-03-31T04:35:57;94962.81;;;10.08;62.96
72395;BME280;60384;48.152;11.614;2023-03-31T04:39:05;94953.38;;;10.10;62.95
72395;BME280;60384;48.152;11.614;2023-03-31T04:42:10;94953.81;;;10.12;62.89
72395;BME280;60384;48.152;11.614;2023-03-31T04:45:11;94939.38;;;10.13;63.17
72395;BME280;60384;48.152;11.614;2023-03-31T04:48:14;94944.38;;;10.15;62.82
72395;BME280;60384;48.152;11.614;2023-03-31T04:51:16;94937.13;;;10.15;63.44
72395;BME280;60384;48.152;11.614;2023-03-31T04:54:19;94939.50;;;10.17;62.94
72395;BME280;60384;48.152;11.614;2023-03-31T04:57:21;94940.28;;;10.17;62.91
72395;BME280;60384;48.152;11.614;2023-03-31T05:00:23;94913.91;;;10.16;62.58
72395;BME280;60384;48.152;11.614;2023-03-31T05:03:27;94882.97;;;10.15;62.68
72395;BME280;60384;48.152;11.614;2023-03-31T05:06:28;94853.63;;;10.15;63.20
72395;BME280;60384;48.152;11.614;2023-03-31T05:09:30;94850.84;;;10.11;62.77
72395;BME280;60384;48.152;11.614;2023-03-31T05:12:32;94833.59;;;10.09;62.84
72395;BME280;60384;48.152;11.614;2023-03-31T05:15:36;94833.50;;;10.05;63.03
72395;BME280;60384;48.152;11.614;2023-03-31T05:18:39;94820.72;;;9.99;62.63
72395;BME280;60384;48.152;11.614;2023-03-31T05:21:41;94813.63;;;9.90;63.25
72395;BME280;60384;48.152;11.614;2023-03-31T05:24:42;94795.13;;;9.85;62.99
72395;BME280;60384;48.152;11.614;2023-03-31T05:27:44;94780.59;;;9.83;63.31
72395;BME280;60384;48.152;11.614;2023-03-31T05:30:46;94777.47;;;9.81;63.82
72395;BME280;60384;48.152;11.614;2023-03-31T05:33:49;94762.16;;;9.78;63.25
72395;BME280;60384;48.152;11.614;2023-03-31T05:36:51;94774.25;;;9.75;63.39
72395;BME280;60384;48.152;11.614;2023-03-31T05:39:53;94775.34;;;9.74;63.32
72395;BME280;60384;48.152;11.614;2023-03-31T05:42:54;94743.03;;;9.76;63.06
72395;BME280;60384;48.152;11.614;2023-03-31T05:45:56;94735.47;;;9.78;63.51
72395;BME280;60384;48.152;11.614;2023-03-31T05:48:59;94727.56;;;9.81;63.43
72395;BME280;60384;48.152;11.614;2023-03-31T05:52:01;94720.91;;;9.87;63.32
72395;BME280;60384;48.152;11.614;2023-03-31T05:55:03;94718.78;;;9.93;62.62
72395;BME280;60384;48.152;11.614;2023-03-31T05:58:05;94699.09;;;9.98;62.69
72395;BME280;60384;48.152;11.614;2023-03-31T06:01:08;94684.31;;;10.00;62.29
72395;BME280;60384;48.152;11.614;2023-03-31T06:04:11;94679.78;;;10.01;63.25
72395;BME280;60384;48.152;11.614;2023-03-31T06:07:13;94664.53;;;10.01;62.82
72395;BME280;60384;48.152;11.614;2023-03-31T06:10:17;94671.75;;;10.13;62.69
72395;BME280;60384;48.152;11.614;2023-03-31T06:13:18;94661.72;;;10.22;62.15
72395;BME280;60384;48.152;11.614;2023-03-31T06:16:20;94649.94;;;10.23;61.99
72395;BME280;60384;48.152;11.614;2023-03-31T06:19:23;94629.78;;;10.25;62.61
72395;BME280;60384;48.152;11.614;2023-03-31T06:22:25;94619.91;;;10.26;62.60
72395;BME280;60384;48.152;11.614;2023-03-31T06:25:26;94613.56;;;10.30;62.76
72395;BME280;60384;48.152;11.614;2023-03-31T06:28:28;94600.97;;;10.31;62.17
72395;BME280;60384;48.152;11.614;2023-03-31T06:31:30;94605.19;;;10.32;62.41
72395;BME280;60384;48.152;11.614;2023-03-31T06:34:33;94595.81;;;10.38;62.34
72395;BME280;60384;48.152;11.614;2023-03-31T06:37:35;94595.56;;;10.43;62.95
72395;BME280;60384;48.152;11.614;2023-03-31T06:40:36;94594.22;;;10.49;62.17
72395;BME280;60384;48.152;11.614;2023-03-31T06:43:38;94583.06;;;10.59;61.70
72395;BME280;60384;48.152;11.614;2023-03-31T06:46:39;94595.44;;;10.67;62.67
72395;BME280;60384;48.152;11.614;2023-03-31T06:49:42;94578.38;;;10.72;62.53
72395;BME280;60384;48.152;11.614;2023-03-31T06:52:44;94577.34;;;10.76;61.73
72395;BME280;60384;48.152;11.614;2023-03-31T06:55:46;94578.56;;;10.79;62.07
72395;BME280;60384;48.152;11.614;2023-03-31T06:58:48;94575.13;;;10.78;62.05
72395;BME280;60384;48.152;11.614;2023-03-31T07:01:49;94590.28;;;10.74;62.18
72395;BME280;60384;48.152;11.614;2023-03-31T07:04:52;94601.66;;;10.71;62.96
72395;BME280;60384;48.152;11.614;2023-03-31T07:07:54;94606.91;;;10.68;62.09
72395;BME280;60384;48.152;11.614;2023-03-31T07:10:57;94633.19;;;10.66;62.41
72395;BME280;60384;48.152;11.614;2023-03-31T07:13:59;94697.63;;;10.64;62.26
72395;BME280;60384;48.152;11.614;2023-03-31T07:17:00;94720.34;;;10.58;62.91
72395;BME280;60384;48.152;11.614;2023-03-31T07:20:04;94723.59;;;10.52;63.12
72395;BME280;60384;48.152;11.614;2023-03-31T07:23:10;94706.72;;;10.48;62.66
72395;BME280;60384;48.152;11.614;2023-03-31T07:26:11;94713.50;;;10.45;63.27
72395;BME280;60384;48.152;11.614;2023-03-31T07:29:13;94752.31;;;10.43;62.76
72395;BME280;60384;48.152;11.614;2023-03-31T07:32:15;94752.44;;;10.34;63.17
72395;BME280;60384;48.152;11.614;2023-03-31T07:35:18;94748.00;;;10.26;63.53
72395;BME280;60384;48.152;11.614;2023-03-31T07:38:19;94721.22;;;10.22;63.23
72395;BME280;60384;48.152;11.614;2023-03-31T07:41:21;94696.44;;;10.22;63.29
72395;BME280;60384;48.152;11.614;2023-03-31T07:44:23;94704.19;;;10.27;63.38
72395;BME280;60384;48.152;11.614;2023-03-31T07:47:25;94682.97;;;10.30;63.78
72395;BME280;60384;48.152;11.614;2023-03-31T07:50:29;94667.03;;;10.34;63.67
72395;BME280;60384;48.152;11.614;2023-03-31T07:53:32;94647.22;;;10.35;63.36
72395;BME280;60384;48.152;11.614;2023-03-31T07:56:33;94650.69;;;10.35;63.62
72395;BME280;60384;48.152;11.614;2023-03-31T07:59:35;94636.31;;;10.40;63.66
72395;BME280;60384;48.152;11.614;2023-03-31T08:02:37;94617.81;;;10.47;63.39
72395;BME280;60384;48.152;11.614;2023-03-31T08:05:40;94612.66;;;10.54;63.05
72395;BME280;60384;48.152;11.614;2023-03-31T08:08:42;94588.75;;;10.73;63.33
72395;BME280;60384;48.152;11.614;2023-03-31T08:11:43;94573.75;;;10.85;62.37
72395;BME280;60384;48.152;11.614;2023-03-31T08:14:45;94566.59;;;10.89;61.95
72395;BME280;60384;48.152;11.614;2023-03-31T08:17:46;94583.84;;;10.91;63.25
72395;BME280;60384;48.152;11.614;2023-03-31T08:20:49;94574.53;;;10.85;62.28
72395;BME280;60384;48.152;11.614;2023-03-31T08:23:53;94569.09;;;10.82;63.58
72395;BME280;60384;48.152;11.614;2023-03-31T08:26:54;94594.69;;;10.83;62.96
72395;BME280;60384;48.152;11.614;2023-03-31T08:29:56;94568.41;;;10.85;63.54
72395;BME280;60384;48.152;11.614;2023-03-31T08:33:02;94580.22;;;10.84;62.54
72395;BME280;60384;48.152;11.614;2023-03-31T08:36:06;94560.84;;;10.87;62.65
72395;BME280;60384;48.152;11.614;2023-03-31T08:39:09;94536.78;;;10.87;62.92
72395;BME280;60384;48.152;11.614;2023-03-31T08:42:12;94560.13;;;10.90;62.80
72395;BME280;60384;48.152;11.614;2023-03-31T08:45:17;94541.09;;;10.91;62.98
72395;BME280;60384;48.152;11.614;2023-03-31T08:48:20;94588.75;;;10.89;63.05
72395;BME280;60384;48.152;11.614;2023-03-31T08:51:26;94598.22;;;10.87;62.98
72395;BME280;60384;48.152;11.614;2023-03-31T08:54:30;94615.03;;;10.87;63.60
72395;BME280;60384;48.152;11.614;2023-03-31T08:57:34;94636.06;;;10.89;63.09
72395;BME280;60384;48.152;11.614;2023-03-31T09:00:42;94647.78;;;11.00;63.39
72395;BME280;60384;48.152;11.614;2023-03-31T09:03:49;94671.50;;;11.17;63.19
72395;BME280;60384;48.152;11.614;2023-03-31T09:07:00;94635.72;;;11.37;63.26
72395;BME280;60384;48.152;11.614;2023-03-31T09:10:09;94633.09;;;11.56;63.05
72395;BME280;60384;48.152;11.614;2023-03-31T09:13:21;94628.97;;;11.75;62.56
72395;BME280;60384;48.152;11.614;2023-03-31T09:16:29;94632.59;;;11.82;62.55
72395;BME280;60384;48.152;11.614;2023-03-31T09:19:35;94610.63;;;11.92;62.89
72395;BME280;60384;48.152;11.614;2023-03-31T09:22:40;94615.06;;;12.04;62.86
72395;BME280;60384;48.152;11.614;2023-03-31T09:25:43;94602.06;;;12.41;61.40
72395;BME280;60384;48.152;11.614;2023-03-31T09:28:45;94590.34;;;12.72;61.31
72395;BME280;60384;48.152;11.614;2023-03-31T09:31:47;94573.63;;;13.01;60.45
72395;BME280;60384;48.152;11.614;2023-03-31T09:34:49;94582.28;;;13.37;60.32
72395;BME280;60384;48.152;11.614;2023-03-31T09:37:53;94574.28;;;13.67;59.98
72395;BME280;60384;48.152;11.614;2023-03-31T09:40:56;94565.94;;;13.75;60.05
72395;BME280;60384;48.152;11.614;2023-03-31T09:43:58;94551.13;;;14.18;59.98
72395;BME280;60384;48.152;11.614;2023-03-31T09:47:00;94534.66;;;14.53;58.90
72395;BME280;60384;48.152;11.614;2023-03-31T09:50:04;94538.19;;;15.01;58.06
72395;BME280;60384;48.152;11.614;2023-03-31T09:53:10;94531.38;;;15.69;57.55
72395;BME280;60384;48.152;11.614;2023-03-31T09:56:30;94526.41;;;16.79;55.53
72395;BME280;60384;48.152;11.614;2023-03-31T09:59:32;94532.16;;;16.81;56.01
72395;BME280;60384;48.152;11.614;2023-03-31T10:02:35;94540.25;;;16.74;56.32
72395;BME280;60384;48.152;11.614;2023-03-31T10:05:38;94547.09;;;16.43;57.22
72395;BME280;60384;48.152;11.614;2023-03-31T10:08:50;94543.97;;;16.37;57.44
72395;BME280;60384;48.152;11.614;2023-03-31T10:11:55;94520.81;;;16.11;57.97
72395;BME280;60384;48.152;11.614;2023-03-31T10:15:13;94526.38;;;16.61;57.36
72395;BME280;60384;48.152;11.614;2023-03-31T10:18:18;94517.09;;;17.54;55.50
72395;BME280;60384;48.152;11.614;2023-03-31T10:21:20;94522.78;;;18.09;54.99
72395;BME280;60384;48.152;11.614;2023-03-31T10:24:24;94496.75;;;18.40;54.22
72395;BME280;60384;48.152;11.614;2023-03-31T10:27:27;94497.09;;;17.30;57.32
72395;BME280;60384;48.152;11.614;2023-03-31T10:30:33;94489.03;;;16.95;58.20
72395;BME280;60384;48.152;11.614;2023-03-31T10:33:38;94487.88;;;16.96;58.45
72395;BME280;60384;48.152;11.614;2023-03-31T10:36:44;94473.91;;;17.65;56.65
72395;BME280;60384;48.152;11.614;2023-03-31T10:39:48;94447.03;;;18.20;55.42
72395;BME280;60384;48.152;11.614;2023-03-31T10:42:57;94494.22;;;18.81;54.78
72395;BME280;60384;48.152;11.614;2023-03-31T10:46:00;94465.94;;;18.24;56.13
72395;BME280;60384;48.152;11.614;2023-03-31T10:49:05;94452.47;;;18.16;56.48
72395;BME280;60384;48.152;11.614;2023-03-31T10:52:16;94458.03;;;17.81;57.32
72395;BME280;60384;48.152;11.614;2023-03-31T10:55:21;94440.38;;;18.35;56.22
72395;BME280;60384;48.152;11.614;2023-03-31T10:58:28;94428.66;;;17.90;57.45
72395;BME280;60384;48.152;11.614;2023-03-31T11:01:37;94425.78;;;18.22;56.98
72395;BME280;60384;48.152;11.614;2023-03-31T11:04:46;94418.50;;;18.15;56.55
72395;BME280;60384;48.152;11.614;2023-03-31T11:07:53;94411.09;;;17.22;59.07
72395;BME280;60384;48.152;11.614;2023-03-31T11:11:04;94419.25;;;16.65;60.07
72395;BME280;60384;48.152;11.614;2023-03-31T11:14:11;94403.44;;;16.21;61.09
72395;BME280;60384;48.152;11.614;2023-03-31T11:17:21;94404.50;;;15.88;61.22
72395;BME280;60384;48.152;11.614;2023-03-31T11:20:27;94418.25;;;15.58;61.83
72395;BME280;60384;48.152;11.614;2023-03-31T11:23:33;94422.72;;;15.33;62.33
72395;BME280;60384;48.152;11.614;2023-03-31T11:26:44;94608.22;;;15.12;62.92
72395;BME280;60384;48.152;11.614;2023-03-31T11:29:50;94528.94;;;14.58;62.85
72395;BME280;60384;48.152;11.614;2023-03-31T11:32:58;94522.13;;;13.97;62.98
72395;BME280;60384;48.152;11.614;2023-03-31T11:36:06;94492.44;;;13.53;63.38
72395;BME280;60384;48.152;11.614;2023-03-31T11:39:16;94480.44;;;13.17;63.50
72395;BME280;60384;48.152;11.614;2023-03-31T11:42:24;94494.34;;;13.00;63.54
72395;BME280;60384;48.152;11.614;2023-03-31T11:45:27;94483.50;;;12.93;63.40
72395;BME280;60384;48.152;11.614;2023-03-31T11:48:35;94448.09;;;13.07;62.87
72395;BME280;60384;48.152;11.614;2023-03-31T11:51:41;94438.31;;;13.18;62.73
72395;BME280;60384;48.152;11.614;2023-03-31T11:54:45;94434.72;;;13.10;62.52
72395;BME280;60384;48.152;11.614;2023-03-31T11:57:53;94422.06;;;13.07;62.55
72395;BME280;60384;48.152;11.614;2023-03-31T12:00:59;94418.84;;;13.21;62.40
72395;BME280;60384;48.152;11.614;2023-03-31T12:04:04;94401.50;;;13.45;61.82
72395;BME280;60384;48.152;11.614;2023-03-31T12:07:11;94393.41;;;13.75;61.44
72395;BME280;60384;48.152;11.614;2023-03-31T12:10:18;94361.34;;;14.33;60.39
72395;BME280;60384;48.152;11.614;2023-03-31T12:13:32;94354.66;;;15.32;58.08
72395;BME280;60384;48.152;11.614;2023-03-31T12:16:35;94334.47;;;15.95;57.24
72395;BME280;60384;48.152;11.614;2023-03-31T12:19:42;94337.09;;;17.23;55.43
72395;BME280;60384;48.152;11.614;2023-03-31T12:22:46;94336.28;;;18.09;54.33
72395;BME280;60384;48.152;11.614;2023-03-31T12:25:49;94336.94;;;17.65;55.95
72395;BME280;60384;48.152;11.614;2023-03-31T12:28:54;94331.44;;;16.78;57.91
72395;BME280;60384;48.152;11.614;2023-03-31T12:32:00;94332.19;;;16.43;58.81
72395;BME280;60384;48.152;11.614;2023-03-31T12:35:04;94342.16;;;16.92;57.85
72395;BME280;60384;48.152;11.614;2023-03-31T12:38:15;94306.31;;;16.92;57.75
72395;BME280;60384;48.152;11.614;2023-03-31T12:41:22;94333.00;;;16.69;58.13
72395;BME280;60384;48.152;11.614;2023-03-31T12:44:29;94334.91;;;16.36;58.92
72395;BME280;60384;48.152;11.614;2023-03-31T12:47:50;94336.41;;;16.02;59.73
72395;BME280;60384;48.152;11.614;2023-03-31T12:50:56;94358.66;;;15.67;60.60
72395;BME280;60384;48.152;11.614;2023-03-31T12:54:07;94360.09;;;15.40;61.12
72395;BME280;60384;48.152;11.614;2023-03-31T12:57:18;94342.72;;;15.23;60.80
72395;BME280;60384;48.152;11.614;2023-03-31T13:00:25;94343.13;;;15.25;60.82
72395;BME280;60384;48.152;11.614;2023-03-31T13:03:37;94353.00;;;16.32;58.48
72395;BME280;60384;48.152;11.614;2023-03-31T13:06:45;94354.53;;;16.33;58.60
72395;BME280;60384;48.152;11.614;2023-03-31T13:09:48;94363.34;;;15.98;59.47
72395;BME280;60384;48.152;11.614;2023-03-31T13:13:01;94353.31;;;15.78;59.73
72395;BME280;60384;48.152;11.614;2023-03-31T13:16:04;94357.06;;;15.48;59.67
72395;BME280;60384;48.152;11.614;2023-03-31T13:19:06;94340.81;;;15.23;60.27
72395;BME280;60384;48.152;11.614;2023-03-31T13:22:19;94405.31;;;15.13;60.08
72395;BME280;60384;48.152;11.614;2023-03-31T13:25:41;94353.75;;;15.00;60.07
72395;BME280;60384;48.152;11.614;2023-03-31T13:28:43;94293.38;;;14.87;60.55
72395;BME280;60384;48.152;11.614;2023-03-31T13:32:16;94305.38;;;15.07;59.40
72395;BME280;60384;48.152;11.614;2023-03-31T13:35:19;94319.81;;;15.64;58.26
72395;BME280;60384;48.152;11.614;2023-03-31T13:38:26;94325.09;;;15.36;59.12
72395;BME280;60384;48.152;11.614;2023-03-31T13:41:33;94311.78;;;15.72;57.32
72395;BME280;60384;48.152;11.614;2023-03-31T13:44:46;94294.06;;;16.66;56.03
72395;BME280;60384;48.152;11.614;2023-03-31T13:47:59;94309.47;;;17.74;54.31
72395;BME280;60384;48.152;11.614;2023-03-31T13:51:14;94316.13;;;17.52;55.20
72395;BME280;60384;48.152;11.614;2023-03-31T13:54:35;94343.00;;;18.42;54.26
72395;BME280;60384;48.152;11.614;2023-03-31T14:04:33;94318.31;;;16.91;57.61
72395;BME280;60384;48.152;11.614;2023-03-31T14:07:39;94311.81;;;16.60;57.93
72395;BME280;60384;48.152;11.614;2023-03-31T14:10:44;94306.78;;;16.51;58.13
72395;BME280;60384;48.152;11.614;2023-03-31T14:13:57;94298.69;;;16.30;58.44
72395;BME280;60384;48.152;11.614;2023-03-31T14:16:59;94322.19;;;15.94;59.21
72395;BME280;60384;48.152;11.614;2023-03-31T14:20:07;94344.78;;;15.61;59.51
72395;BME280;60384;48.152;11.614;2023-03-31T14:23:13;94337.41;;;15.37;59.71
72395;BME280;60384;48.152;11.614;2023-03-31T14:26:20;94350.38;;;15.21;59.77
72395;BME280;60384;48.152;11.614;2023-03-31T14:29:28;94338.88;;;15.20;60.01
72395;BME280;60384;48.152;11.614;2023-03-31T14:32:35;94359.50;;;14.99;59.87
72395;BME280;60384;48.152;11.614;2023-03-31T14:35:42;94346.34;;;14.83;60.53
72395;BME280;60384;48.152;11.614;2023-03-31T14:38:49;94352.41;;;14.66;60.55
72395;BME280;60384;48.152;11.614;2023-03-31T14:41:51;94361.88;;;14.49;60.55
72395;BME280;60384;48.152;11.614;2023-03-31T14:44:57;94426.59;;;14.33;60.93
72395;BME280;60384;48.152;11.614;2023-03-31T14:48:07;94417.53;;;13.71;61.05
72395;BME280;60384;48.152;11.614;2023-03-31T14:51:13;94407.16;;;13.10;61.55
72395;BME280;60384;48.152;11.614;2023-03-31T14:54:15;94398.16;;;12.69;61.88
72395;BME280;60384;48.152;11.614;2023-03-31T14:57:19;94419.38;;;12.32;62.25
72395;BME280;60384;48.152;11.614;2023-03-31T15:00:23;94434.63;;;12.05;62.75
72395;BME280;60384;48.152;11.614;2023-03-31T15:03:26;94354.00;;;11.87;62.25
72395;BME280;60384;48.152;11.614;2023-03-31T15:06:29;94371.00;;;11.76;62.12
72395;BME280;60384;48.152;11.614;2023-03-31T15:09:33;94344.56;;;11.93;61.73
72395;BME280;60384;48.152;11.614;2023-03-31T15:12:35;94331.94;;;12.43;60.67
72395;BME280;60384;48.152;11.614;2023-03-31T15:15:37;94323.28;;;12.53;60.68
72395;BME280;60384;48.152;11.614;2023-03-31T15:18:39;94330.25;;;12.58;61.30
72395;BME280;60384;48.152;11.614;2023-03-31T15:21:42;94319.34;;;12.70;60.49
72395;BME280;60384;48.152;11.614;2023-03-31T15:24:44;94319.47;;;12.80;60.41
72395;BME280;60384;48.152;11.614;2023-03-31T15:27:47;94302.75;;;12.91;60.08
72395;BME280;60384;48.152;11.614;2023-03-31T15:30:50;94305.09;;;12.96;60.72
72395;BME280;60384;48.152;11.614;2023-03-31T15:33:52;94300.56;;;13.00;60.85
72395;BME280;60384;48.152;11.614;2023-03-31T15:36:55;94297.16;;;13.03;60.69
72395;BME280;60384;48.152;11.614;2023-03-31T15:39:58;94296.81;;;13.08;60.47
72395;BME280;60384;48.152;11.614;2023-03-31T15:43:02;94291.94;;;13.13;60.65
72395;BME280;60384;48.152;11.614;2023-03-31T15:46:08;94300.06;;;13.20;60.90
72395;BME280;60384;48.152;11.614;2023-03-31T15:49:17;94311.59;;;13.24;60.58
72395;BME280;60384;48.152;11.614;2023-03-31T15:52:23;94314.31;;;13.28;60.29
72395;BME280;60384;48.152;11.614;2023-03-31T15:55:26;94312.03;;;13.30;60.36
72395;BME280;60384;48.152;11.614;2023-03-31T15:58:45;94313.97;;;13.33;60.42
72395;BME280;60384;48.152;11.614;2023-03-31T16:01:47;94306.34;;;13.35;60.26
72395;BME280;60384;48.152;11.614;2023-03-31T16:04:49;94310.59;;;13.36;60.25
72395;BME280;60384;48.152;11.614;2023-03-31T16:07:56;94304.47;;;13.39;60.46
72395;BME280;60384;48.152;11.614;2023-03-31T16:11:04;94307.97;;;13.43;60.38
72395;BME280;60384;48.152;11.614;2023-03-31T16:14:09;94319.16;;;13.49;60.22
72395;BME280;60384;48.152;11.614;2023-03-31T16:17:17;94299.25;;;13.53;60.08
72395;BME280;60384;48.152;11.614;2023-03-31T16:20:22;94285.88;;;13.57;60.18
72395;BME280;60384;48.152;11.614;2023-03-31T16:23:27;94306.63;;;13.60;59.99
72395;BME280;60384;48.152;11.614;2023-03-31T16:26:29;94298.94;;;13.62;60.26